createdAt,value
2022-12-13T00:00:14.945Z,98229.23
2022-12-13T00:03:28.634Z,98239.74
2022-12-13T00:06:41.512Z,98242.66
2022-12-13T00:09:53.261Z,98236.38
2022-12-13T00:13:05.150Z,98246.12
2022-12-13T00:16:22.691Z,98246.03
2022-12-13T00:19:34.770Z,98253.84
2022-12-13T00:22:46.846Z,98247.11
2022-12-13T00:25:58.708Z,98248.77
2022-12-13T00:29:13.258Z,98249.70
2022-12-13T00:32:25.613Z,98253.98
2022-12-13T00:35:37.921Z,98254.23
2022-12-13T00:38:52.224Z,98262.10
2022-12-13T00:42:04.361Z,98265.87
2022-12-13T00:45:17.542Z,98262.41
2022-12-13T00:48:39.401Z,98268.02
2022-12-13T00:55:41.573Z,98280.27
2022-12-13T00:59:05.793Z,98278.28
2022-12-13T01:02:17.540Z,98269.72
2022-12-13T01:06:12.538Z,98273.90
2022-12-13T01:11:52.863Z,98281.02
2022-12-13T01:15:04.788Z,98269.94
2022-12-13T01:18:26.770Z,98284.95
2022-12-13T01:21:38.716Z,98280.06
2022-12-13T01:24:50.888Z,98289.39
2022-12-13T01:28:02.706Z,98284.19
2022-12-13T01:31:26.713Z,98293.83
2022-12-13T01:34:38.490Z,98287.87
2022-12-13T01:37:51.516Z,98291.28
2022-12-13T01:41:08.995Z,98288.77
2022-12-13T01:45:12.545Z,98292.44
2022-12-13T01:48:29.239Z,98291.76
2022-12-13T01:51:46.109Z,98302.84
2022-12-13T01:55:29.388Z,98307.28
2022-12-13T01:58:43.076Z,98304.98
2022-12-13T02:02:00.996Z,98311.41
2022-12-13T02:05:18.442Z,98308.81
2022-12-13T02:08:35.970Z,98320.36
2022-12-13T02:11:49.137Z,98328.08
2022-12-13T02:15:02.552Z,98321.18
2022-12-13T02:18:29.627Z,98315.16
2022-12-13T02:21:47.834Z,98326.54
2022-12-13T02:25:28.612Z,98316.99
2022-12-13T02:28:53.354Z,98325.00
2022-12-13T02:32:11.560Z,98326.97
2022-12-13T02:35:36.184Z,98332.33
2022-12-13T02:38:55.743Z,98322.06
2022-12-13T02:42:21.410Z,98320.23
2022-12-13T02:45:45.524Z,98328.03
2022-12-13T02:49:00.929Z,98330.50
2022-12-13T02:52:22.414Z,98325.75
2022-12-13T02:55:32.549Z,98330.95
2022-12-13T02:58:48.843Z,98341.19
2022-12-13T03:02:10.939Z,98333.47
2022-12-13T03:05:51.250Z,98330.95
2022-12-13T03:09:24.000Z,98328.56
2022-12-13T03:12:56.016Z,98336.56
2022-12-13T03:16:15.439Z,98333.97
2022-12-13T03:19:29.467Z,98332.30
2022-12-13T03:22:42.708Z,98330.60
2022-12-13T03:25:57.807Z,98332.34
2022-12-13T03:29:09.895Z,98346.35
2022-12-13T03:32:21.654Z,98348.02
2022-12-13T03:35:44.383Z,98352.16
2022-12-13T03:38:48.056Z,98348.79
2022-12-13T03:42:01.023Z,98348.95
2022-12-13T03:45:15.534Z,98354.14
2022-12-13T03:48:28.696Z,98356.74
2022-12-13T03:51:40.834Z,98358.41
2022-12-13T03:54:52.677Z,98357.64
2022-12-13T03:58:07.817Z,98354.96
2022-12-13T04:01:22.273Z,98364.66
2022-12-13T04:04:34.375Z,98359.63
2022-12-13T04:07:47.903Z,98365.72
2022-12-13T04:11:00.209Z,98365.80
2022-12-13T04:14:22.627Z,98366.49
2022-12-13T04:17:27.892Z,98372.13
2022-12-13T04:20:39.690Z,98371.12
2022-12-13T04:23:51.509Z,98377.25
2022-12-13T04:27:03.387Z,98374.56
2022-12-13T04:30:27.006Z,98382.80
2022-12-13T04:33:41.164Z,98384.73
2022-12-13T04:36:53.129Z,98384.47
2022-12-13T04:40:21.558Z,98388.88
2022-12-13T04:43:30.885Z,98384.62
2022-12-13T04:46:44.072Z,98384.81
2022-12-13T04:50:03.663Z,98383.19
2022-12-13T04:53:45.965Z,98384.73
2022-12-13T04:57:00.071Z,98385.02
2022-12-13T05:00:21.287Z,98390.21
2022-12-13T05:03:33.492Z,98392.11
2022-12-13T05:06:46.425Z,98394.70
2022-12-13T05:13:38.986Z,98390.36
2022-12-13T05:16:51.033Z,98393.86
2022-12-13T05:20:03.095Z,98392.19
2022-12-13T05:26:55.875Z,98397.22
2022-12-13T05:30:08.190Z,98399.78
2022-12-13T05:33:20.234Z,98394.63
2022-12-13T05:36:32.690Z,98395.63
2022-12-13T05:39:44.756Z,98394.58
2022-12-13T05:43:01.431Z,98398.93
2022-12-13T05:46:11.364Z,98396.45
2022-12-13T05:49:32.529Z,98395.55
2022-12-13T05:52:44.894Z,98402.42
2022-12-13T05:55:56.751Z,98407.77
2022-12-13T05:59:08.696Z,98406.06
2022-12-13T06:02:22.157Z,98408.62
2022-12-13T06:05:35.066Z,98418.16
2022-12-13T06:08:47.491Z,98413.81
2022-12-13T06:12:01.147Z,98412.19
2022-12-13T06:15:21.943Z,98412.88
2022-12-13T06:18:30.600Z,98419.20
2022-12-13T06:21:46.379Z,98426.14
2022-12-13T06:24:57.370Z,98432.96
2022-12-13T06:28:09.572Z,98440.67
2022-12-13T06:31:21.454Z,98436.18
2022-12-13T06:34:33.852Z,98436.95
2022-12-13T06:37:46.520Z,98439.52
2022-12-13T06:40:58.595Z,98442.93
2022-12-13T06:44:12.854Z,98447.34
2022-12-13T06:47:31.726Z,98454.09
2022-12-13T06:50:39.237Z,98461.06
2022-12-13T06:53:51.182Z,98462.81
2022-12-13T06:57:03.035Z,98461.96
2022-12-13T07:00:22.623Z,98468.86
2022-12-13T07:03:37.584Z,98471.23
2022-12-13T07:06:50.928Z,98472.08
2022-12-13T07:10:03.445Z,98470.27
2022-12-13T07:13:16.717Z,98484.73
2022-12-13T07:16:30.080Z,98488.10
2022-12-13T07:19:42.278Z,98488.03
2022-12-13T07:22:58.908Z,98494.00
2022-12-13T07:26:11.748Z,98496.67
2022-12-13T07:29:23.838Z,98498.15
2022-12-13T07:32:36.421Z,98503.30
2022-12-13T07:35:48.900Z,98500.48
2022-12-13T07:39:03.967Z,98509.91
2022-12-13T07:42:15.817Z,98497.84
2022-12-13T07:45:29.095Z,98502.03
2022-12-13T07:48:41.353Z,98507.11
2022-12-13T07:51:53.244Z,98514.13
2022-12-13T07:55:05.854Z,98508.00
2022-12-13T07:58:19.838Z,98507.96
2022-12-13T08:01:32.222Z,98498.97
2022-12-13T08:04:44.443Z,98509.09
2022-12-13T08:07:57.184Z,98511.77
2022-12-13T08:11:15.449Z,98509.16
2022-12-13T08:14:27.344Z,98519.33
2022-12-13T08:17:39.395Z,98517.23
2022-12-13T08:20:52.728Z,98515.64
2022-12-13T08:24:07.215Z,98514.63
2022-12-13T08:27:19.955Z,98521.59
2022-12-13T08:30:31.923Z,98515.50
2022-12-13T08:33:46.503Z,98512.05
2022-12-13T08:37:01.986Z,98520.75
2022-12-13T08:40:15.809Z,98534.10
2022-12-13T08:43:29.311Z,98535.53
2022-12-13T08:46:41.346Z,98532.44
2022-12-13T08:49:53.265Z,98530.33
2022-12-13T08:53:05.401Z,98528.50
2022-12-13T08:56:18.954Z,98528.50
2022-12-13T08:59:32.236Z,98528.01
2022-12-13T09:02:44.766Z,98537.13
2022-12-13T09:05:57.099Z,98526.38
2022-12-13T09:09:09.426Z,98518.22
2022-12-13T09:12:30.707Z,98528.91
2022-12-13T09:15:36.738Z,98519.05
2022-12-13T09:18:55.404Z,98523.36
2022-12-13T09:22:03.823Z,98518.94
2022-12-13T09:25:24.004Z,98524.35
2022-12-13T09:28:30.755Z,98520.98
2022-12-13T09:31:42.641Z,98520.20
2022-12-13T09:34:57.615Z,98525.53
2022-12-13T09:38:09.935Z,98522.52
2022-12-13T09:41:28.313Z,98520.91
2022-12-13T09:44:51.548Z,98522.45
2022-12-13T09:48:05.897Z,98527.20
2022-12-13T09:51:28.603Z,98529.20
2022-12-13T09:54:36.494Z,98529.20
2022-12-13T09:57:52.808Z,98526.92
2022-12-13T10:01:09.691Z,98527.77
2022-12-13T10:04:26.045Z,98533.63
2022-12-13T10:07:40.134Z,98532.09
2022-12-13T10:10:53.064Z,98526.39
2022-12-13T10:14:10.816Z,98532.00
2022-12-13T10:17:26.281Z,98530.87
2022-12-13T10:20:40.198Z,98521.60
2022-12-13T10:24:23.650Z,98518.51
2022-12-13T10:27:14.736Z,98517.66
2022-12-13T10:30:29.435Z,98521.31
2022-12-13T10:33:44.764Z,98518.59
2022-12-13T10:36:59.515Z,98518.22
2022-12-13T10:40:32.819Z,98515.63
2022-12-13T10:43:39.814Z,98509.36
2022-12-13T10:47:09.966Z,98519.36
2022-12-13T10:50:33.462Z,98518.35
2022-12-13T10:53:51.485Z,98516.68
2022-12-13T10:57:04.875Z,98514.97
2022-12-13T11:00:40.635Z,98508.89
2022-12-13T11:04:04.664Z,98509.79
2022-12-13T11:07:32.715Z,98508.66
2022-12-13T11:10:45.986Z,98499.66
2022-12-13T11:14:03.720Z,98510.61
2022-12-13T11:17:23.255Z,98517.96
2022-12-13T11:20:40.124Z,98507.24
2022-12-13T11:23:52.973Z,98503.88
2022-12-13T11:27:10.105Z,98503.48
2022-12-13T11:30:28.915Z,98488.80
2022-12-13T11:33:49.509Z,98489.17
2022-12-13T11:37:08.635Z,98491.31
2022-12-13T11:40:26.023Z,98488.63
2022-12-13T11:43:43.827Z,98485.72
2022-12-13T11:47:01.775Z,98489.23
2022-12-13T11:50:32.999Z,98481.37
2022-12-13T11:53:43.471Z,98483.50
2022-12-13T11:57:00.803Z,98486.17
2022-12-13T12:00:33.366Z,98496.03
2022-12-13T12:03:46.114Z,98491.81
2022-12-13T12:07:24.572Z,98493.55
2022-12-13T12:10:29.524Z,98494.40
2022-12-13T12:13:50.514Z,98496.60
2022-12-13T12:17:03.906Z,98503.92
2022-12-13T12:20:24.745Z,98498.17
2022-12-13T12:23:52.661Z,98501.41
2022-12-13T12:27:13.988Z,98501.42
2022-12-13T12:30:32.962Z,98508.17
2022-12-13T12:33:46.898Z,98505.26
2022-12-13T12:37:08.567Z,98507.95
2022-12-13T12:41:14.691Z,98507.19
2022-12-13T12:44:08.613Z,98509.41
2022-12-13T12:47:57.562Z,98511.93
2022-12-13T12:50:52.487Z,98509.71
2022-12-13T12:54:12.704Z,98515.83
2022-12-13T12:57:30.719Z,98513.98
2022-12-13T13:00:50.582Z,98518.51
2022-12-13T13:04:08.918Z,98528.75
2022-12-13T13:07:25.683Z,98517.95
2022-12-13T13:10:36.031Z,98519.30
2022-12-13T13:13:56.294Z,98522.80
2022-12-13T13:17:56.940Z,98520.16
2022-12-13T13:21:39.484Z,98520.66
2022-12-13T13:25:03.362Z,98524.32
2022-12-13T13:28:22.246Z,98522.33
2022-12-13T13:31:39.003Z,98526.63
2022-12-13T13:34:53.612Z,98531.48
2022-12-13T13:38:13.725Z,98530.58
2022-12-13T13:42:07.862Z,98528.67
2022-12-13T13:45:32.141Z,98522.48
2022-12-13T13:49:02.977Z,98521.84
2022-12-13T13:52:27.063Z,98526.28
2022-12-13T13:56:02.995Z,98535.87
2022-12-13T14:00:06.668Z,98536.64
2022-12-13T14:04:15.673Z,98539.77
2022-12-13T14:08:14.327Z,98535.50
2022-12-13T14:12:20.301Z,98542.53
2022-12-13T14:16:12.091Z,98555.63
2022-12-13T14:20:06.231Z,98557.05
2022-12-13T14:23:29.408Z,98558.72
2022-12-13T14:26:58.379Z,98551.84
2022-12-13T14:30:27.164Z,98554.56
2022-12-13T14:33:34.700Z,98557.33
2022-12-13T14:36:49.648Z,98558.94
2022-12-13T14:40:01.538Z,98557.23
2022-12-13T14:43:28.542Z,98555.33
2022-12-13T14:46:41.270Z,98560.53
2022-12-13T14:49:57.717Z,98563.64
2022-12-13T14:53:10.425Z,98564.33
2022-12-13T14:56:28.441Z,98561.53
2022-12-13T14:59:37.726Z,98557.31
2022-12-13T15:02:58.582Z,98559.98
2022-12-13T15:06:11.780Z,98559.98
2022-12-13T15:09:24.085Z,98570.51
2022-12-13T15:12:39.133Z,98575.86
2022-12-13T15:15:55.395Z,98581.06
2022-12-13T15:19:30.062Z,98572.33
2022-12-13T15:22:41.028Z,98575.86
2022-12-13T15:26:03.445Z,98577.03
2022-12-13T15:29:17.978Z,98582.30
2022-12-13T15:32:30.603Z,98579.78
2022-12-13T15:35:43.449Z,98588.47
2022-12-13T15:39:07.151Z,98586.80
2022-12-13T15:42:25.815Z,98582.23
2022-12-13T15:45:38.176Z,98583.08
2022-12-13T15:48:53.681Z,98582.65
2022-12-13T15:52:08.877Z,98586.22
2022-12-13T15:55:41.423Z,98583.06
2022-12-13T15:58:58.541Z,98584.73
2022-12-13T16:02:14.026Z,98598.70
2022-12-13T16:05:36.705Z,98584.23
2022-12-13T16:08:50.131Z,98596.95
2022-12-13T16:12:06.930Z,98603.08
2022-12-13T16:15:29.603Z,98591.83
2022-12-13T16:18:48.902Z,98598.07
2022-12-13T16:22:01.111Z,98592.95
2022-12-13T16:25:17.483Z,98595.47
2022-12-13T16:28:29.717Z,98596.44
2022-12-13T16:31:41.854Z,98602.56
2022-12-13T16:34:53.925Z,98604.23
2022-12-13T16:38:09.421Z,98598.14
2022-12-13T16:41:22.233Z,98598.14
2022-12-13T16:44:40.859Z,98606.13
2022-12-13T16:47:54.263Z,98597.48
2022-12-13T16:51:08.671Z,98608.06
2022-12-13T16:54:20.786Z,98609.88
2022-12-13T16:57:32.807Z,98606.31
2022-12-13T17:00:45.572Z,98595.14
2022-12-13T17:03:57.601Z,98599.45
2022-12-13T17:07:09.581Z,98613.41
2022-12-13T17:10:22.934Z,98610.73
2022-12-13T17:13:35.645Z,98625.47
2022-12-13T17:16:47.637Z,98624.77
2022-12-13T17:20:00.408Z,98625.47
2022-12-13T17:23:24.695Z,98628.03
2022-12-13T17:26:26.967Z,98630.67
2022-12-13T17:29:39.072Z,98629.70
2022-12-13T17:32:51.554Z,98633.34
2022-12-13T17:36:05.028Z,98634.12
2022-12-13T17:39:19.107Z,98635.05
2022-12-13T17:42:31.138Z,98641.20
2022-12-13T17:45:44.059Z,98642.16
2022-12-13T17:48:56.887Z,98642.42
2022-12-13T17:52:11.581Z,98644.13
2022-12-13T17:55:23.812Z,98633.31
2022-12-13T17:58:36.576Z,98649.82
2022-12-13T18:01:50.646Z,98650.67
2022-12-13T18:05:02.885Z,98648.12
2022-12-13T18:08:14.916Z,98656.12
2022-12-13T18:11:35.092Z,98645.23
2022-12-13T18:14:41.404Z,98660.17
2022-12-13T18:21:13.241Z,98658.30
2022-12-13T18:24:25.148Z,98662.63
2022-12-13T18:27:39.639Z,98665.19
2022-12-13T18:30:51.765Z,98667.78
2022-12-13T18:34:05.795Z,98679.20
2022-12-13T18:37:17.782Z,98673.45
2022-12-13T18:40:29.966Z,98679.53
2022-12-13T18:43:42.314Z,98669.38
2022-12-13T18:46:54.425Z,98670.30
2022-12-13T18:50:06.691Z,98671.98
2022-12-13T18:53:20.595Z,98672.17
2022-12-13T18:56:32.703Z,98679.17
2022-12-13T18:59:54.326Z,98668.80
2022-12-13T19:02:58.977Z,98675.66
2022-12-13T19:06:14.630Z,98677.47
2022-12-13T19:09:26.637Z,98671.19
2022-12-13T19:12:38.638Z,98669.38
2022-12-13T19:15:51.164Z,98673.75
2022-12-13T19:19:03.536Z,98677.95
2022-12-13T19:22:15.878Z,98675.27
2022-12-13T19:25:27.923Z,98665.77
2022-12-13T19:28:43.129Z,98671.19
2022-12-13T19:31:55.423Z,98666.13
2022-12-13T19:35:07.713Z,98667.09
2022-12-13T19:38:21.926Z,98667.02
2022-12-13T19:41:35.496Z,98665.52
2022-12-13T19:44:47.680Z,98672.41
2022-12-13T19:47:59.643Z,98673.23
2022-12-13T19:51:14.230Z,98669.75
2022-12-13T19:54:28.239Z,98660.55
2022-12-13T19:57:41.347Z,98674.31
2022-12-13T20:00:53.632Z,98674.25
2022-12-13T20:04:05.922Z,98678.65
2022-12-13T20:07:18.287Z,98665.58
2022-12-13T20:10:30.885Z,98664.79
2022-12-13T20:13:43.797Z,98665.45
2022-12-13T20:16:55.773Z,98672.20
2022-12-13T20:20:07.805Z,98674.08
2022-12-13T20:23:20.557Z,98670.70
2022-12-13T20:26:35.725Z,98670.70
2022-12-13T20:29:48.332Z,98670.77
2022-12-13T20:33:01.496Z,98663.77
2022-12-13T20:36:25.905Z,98668.27
2022-12-13T20:39:31.423Z,98658.88
2022-12-13T20:42:44.401Z,98665.91
2022-12-13T20:45:56.384Z,98668.63
2022-12-13T20:49:10.937Z,98665.41
2022-12-13T20:52:22.888Z,98663.17
2022-12-13T20:55:34.962Z,98665.86
2022-12-13T20:58:47.615Z,98672.05
2022-12-13T21:01:59.583Z,98668.95
2022-12-13T21:05:19.100Z,98669.97
2022-12-13T21:08:42.036Z,98670.09
2022-12-13T21:11:55.228Z,98671.95
2022-12-13T21:15:07.416Z,98678.97
2022-12-13T21:18:19.387Z,98677.23
2022-12-13T21:21:32.880Z,98676.44
2022-12-13T21:24:44.775Z,98687.75
2022-12-13T21:27:56.713Z,98675.80
2022-12-13T21:31:10.931Z,98680.38
2022-12-13T21:34:23.229Z,98677.08
2022-12-13T21:37:35.067Z,98673.88
2022-12-13T21:40:52.145Z,98674.03
2022-12-13T21:44:05.274Z,98673.11
2022-12-13T21:47:17.164Z,98681.30
2022-12-13T21:50:28.972Z,98687.39
2022-12-13T21:53:41.289Z,98680.77
2022-12-13T21:57:07.726Z,98686.06
2022-12-13T22:00:22.095Z,98682.88
2022-12-13T22:03:33.964Z,98691.64
2022-12-13T22:06:45.840Z,98688.31
2022-12-13T22:09:59.524Z,98686.00
2022-12-13T22:13:11.427Z,98677.20
2022-12-13T22:16:23.243Z,98687.44
2022-12-13T22:19:35.082Z,98679.20
2022-12-13T22:22:48.617Z,98685.34
2022-12-13T22:26:00.481Z,98672.59
2022-12-13T22:29:14.050Z,98675.50
2022-12-13T22:32:27.201Z,98679.36
2022-12-13T22:35:39.480Z,98683.75
2022-12-13T22:38:54.546Z,98684.73
2022-12-13T22:42:06.566Z,98680.52
2022-12-13T22:45:18.947Z,98688.61
2022-12-13T22:48:30.920Z,98687.81
2022-12-13T22:51:44.342Z,98686.20
2022-12-13T22:54:56.215Z,98688.21
2022-12-13T22:58:08.124Z,98680.58
2022-12-13T23:01:22.780Z,98669.37
2022-12-13T23:04:34.868Z,98664.27
2022-12-13T23:07:48.516Z,98667.92
2022-12-13T23:11:19.066Z,98672.53
2022-12-13T23:14:37.016Z,98664.78
2022-12-13T23:17:48.937Z,98663.10
2022-12-13T23:21:00.837Z,98661.48
2022-12-13T23:24:14.656Z,98652.94
2022-12-13T23:27:28.533Z,98653.00
2022-12-13T23:30:41.701Z,98648.03
2022-12-13T23:33:53.924Z,98658.38
2022-12-13T23:37:05.801Z,98649.88
2022-12-13T23:40:19.629Z,98643.11
2022-12-13T23:43:34.388Z,98642.23
2022-12-13T23:46:48.342Z,98641.27
2022-12-13T23:50:00.908Z,98647.41
2022-12-13T23:53:12.850Z,98651.92
2022-12-13T23:56:25.505Z,98651.11
2022-12-13T23:59:37.448Z,98646.11
